Data for 04/26/2016

Time Sea-Level Adjusted Pressure Absolute Pressure Temperature Relative Humidity Dew Point   
(mb) (inHg) (mb) (inHg) (C) (F) (%) (C) (F)
00:05 1014 29.94 843 24.89 4.2 39.5 77 0.5 32.9
00:10 1014 29.94 843 24.89 4.3 39.7 76 0.4 32.7
00:15 1014 29.94 843 24.89 4.3 39.7 75 0.3 32.5
00:20 1014 29.94 843 24.89 4.3 39.7 76 0.4 32.7
00:25 1014 29.94 843 24.89 4.2 39.6 76 0.4 32.7
00:30 1014 29.94 843 24.89 4.2 39.5 76 0.3 32.6
00:35 1014 29.94 843 24.89 4.1 39.4 77 0.4 32.6
00:40 1014 29.94 843 24.89 4 39.3 76 0.3 32.5
00:45 1014 29.94 843 24.89 4 39.2 77 0.4 32.7
00:50 1014 29.94 843 24.89 3.9 39.1 77 0.3 32.6
00:55 1014 29.94 843 24.89 3.9 39 78 0.3 32.6
01:00 1014 29.94 843 24.89 3.9 39 78 0.4 32.7
01:05 1014 29.94 843 24.89 3.9 39 79 0.6 33
01:10 1014 29.94 843 24.89 3.9 39 79 0.6 33.1
01:15 1014 29.94 843 24.89 3.8 38.9 79 0.5 33
01:20 1014 29.94 843 24.89 3.8 38.8 80 0.6 33
01:25 1014 29.94 843 24.89 3.8 38.8 80 0.7 33.3
01:30 1014 29.94 843 24.89 3.7 38.7 80 0.7 33.2
01:35 1014 29.94 843 24.89 3.6 38.5 80 0.5 33
01:40 1014 29.94 843 24.89 3.6 38.5 80 0.5 32.9
01:45 1014 29.94 843 24.89 3.6 38.5 80 0.5 32.9
01:50 1014 29.94 843 24.89 3.6 38.5 80 0.4 32.7
01:55 1014 29.94 843 24.89 3.6 38.4 80 0.5 32.8
02:00 1014 29.94 843 24.89 3.6 38.4 81 0.6 33
02:05 1014 29.94 844 24.92 3.5 38.4 82 0.7 33.2
02:10 1014 29.94 844 24.92 3.4 38.2 83 0.7 33.3
02:15 1014 29.94 844 24.92 3.4 38.2 83 0.8 33.5
02:20 1014 29.94 844 24.92 3.4 38.1 84 0.9 33.5
02:25 1014 29.94 844 24.92 3.4 38.1 83 0.8 33.5
02:30 1014 29.94 844 24.92 3.4 38.1 84 0.9 33.6
02:35 1014 29.94 844 24.92 3.4 38.1 83 0.8 33.5
02:40 1014 29.94 844 24.92 3.4 38.1 83 0.8 33.5
02:45 1015 29.97 844 24.92 3.3 37.9 84 0.8 33.5
02:50 1015 29.97 844 24.92 3.3 37.9 85 0.9 33.6
02:55 1015 29.97 844 24.92 3.2 37.7 85 0.9 33.6
03:00 1015 29.97 844 24.92 3.2 37.8 85 0.9 33.7
03:05 1015 29.97 844 24.92 3.2 37.8 86 1 33.8
03:10 1015 29.97 844 24.92 3.2 37.7 85 0.9 33.7
03:15 1015 29.97 844 24.92 3.1 37.6 86 1 33.7
03:20 1015 29.97 844 24.92 3.1 37.6 85 0.9 33.6
03:25 1015 29.97 844 24.92 3.1 37.6 85 0.8 33.5
03:30 1015 29.97 844 24.92 3.1 37.6 84 0.7 33.3
03:35 1015 29.97 844 24.92 3.1 37.5 85 0.7 33.3
03:40 1015 29.97 844 24.92 3.1 37.5 84 0.6 33.1
03:45 1015 29.97 844 24.92 3.1 37.5 83 0.5 32.9
03:50 1015 29.97 844 24.92 3.1 37.5 83 0.5 32.9
03:55 1015 29.97 844 24.92 3.1 37.5 84 0.5 33
04:00 1015 29.97 844 24.92 3 37.5 84 0.6 33
04:05 1015 29.97 844 24.92 3.1 37.6 84 0.6 33
04:10 1015 29.97 844 24.92 3.1 37.6 83 0.5 32.9
04:15 1015 29.97 844 24.92 3.1 37.5 83 0.4 32.8
04:20 1015 29.97 844 24.92 3 37.5 83 0.5 32.9
04:25 1015 29.97 844 24.92 3.1 37.5 84 0.6 33
04:30 1015 29.97 844 24.92 3 37.5 84 0.6 33.1
04:35 1015 29.97 844 24.92 3 37.4 84 0.5 32.9
04:40 1015 29.97 844 24.92 3 37.3 84 0.4 32.8
04:45 1015 29.97 844 24.92 2.9 37.2 84 0.5 32.8
04:50 1015 29.97 844 24.92 2.8 37.1 84 0.4 32.8
04:55 1015 29.97 844 24.92 2.8 37 84 0.4 32.7
05:00 1015 29.97 844 24.92 2.8 37 84 0.4 32.7
05:05 1015 29.97 844 24.92 2.7 36.9 85 0.4 32.8
05:10 1015 29.97 845 24.95 2.7 36.9 84 0.4 32.6
05:15 1015 29.97 845 24.95 2.7 36.8 84 0.2 32.4
05:20 1015 29.97 845 24.95 2.8 37 84 0.3 32.5
05:25 1016 30 845 24.95 2.8 37.1 83 0.3 32.5
05:30 1016 30 845 24.95 2.9 37.2 83 0.3 32.6
05:35 1016 30 845 24.95 2.9 37.2 83 0.3 32.6
05:40 1016 30 845 24.95 2.9 37.2 84 0.4 32.7
05:45 1016 30 845 24.95 2.8 37.1 83 0.3 32.5
05:50 1016 30 845 24.95 2.8 37.1 84 0.3 32.6
05:55 1016 30 845 24.95 2.9 37.2 82 0.1 32.2
06:00 1016 30 845 24.95 2.8 37.1 83 0.2 32.3
06:05 1016 30 845 24.95 2.8 37.1 82 0.1 32.2
06:10 1016 30 845 24.95 2.9 37.1 82 0.1 32.2
06:15 1016 30 845 24.95 2.8 37.1 82 0.1 32.2
06:20 1016 30 845 24.95 2.9 37.2 82 0.1 32.2
06:25 1016 30 845 24.95 2.8 37.1 82 0 32
06:30 1016 30 845 24.95 2.8 37.1 82 0.1 32.1
06:35 1016 30 845 24.95 2.9 37.2 82 0.1 32.2
06:40 1016 30 845 24.95 3 37.3 82 0.2 32.3
06:45 1016 30 845 24.95 2.9 37.3 82 0.2 32.3
06:50 1016 30 845 24.95 3 37.4 82 0.2 32.4
06:55 1016 30 845 24.95 3 37.4 82 0.2 32.3
07:00 1016 30 845 24.95 3 37.5 82 0.2 32.3
07:05 1016 30 845 24.95 3.1 37.5 82 0.2 32.4
07:10 1016 30 845 24.95 3.2 37.7 81 0.2 32.4
07:15 1016 30 845 24.95 3.2 37.8 80 0.2 32.3
07:20 1016 30 845 24.95 3.2 37.8 81 0.3 32.5
07:25 1016 30 845 24.95 3.2 37.8 80 0.1 32.2
07:30 1016 30 845 24.95 3.3 37.9 81 0.3 32.5
07:35 1016 30 845 24.95 3.3 37.9 81 0.3 32.6
07:40 1016 30 845 24.95 3.3 37.9 81 0.4 32.6
07:45 1016 30 845 24.95 3.3 38 80 0.3 32.5
07:50 1016 30 845 24.95 3.2 37.7 81 0.2 32.4
07:55 1016 30 845 24.95 3.1 37.7 80 0.1 32.1
08:00 1016 30 845 24.95 3.1 37.5 80 -0.1 31.9
08:05 1016 30 845 24.95 3.2 37.7 80 0 32
08:10 1016 30 845 24.95 3.2 37.8 80 0 32
08:15 1016 30 845 24.95 3.3 37.9 78 -0.1 31.8
08:20 1016 30 845 24.95 3.3 38 78 -0.1 31.8
08:25 1016 30 845 24.95 3.4 38.2 77 -0.2 31.7
08:30 1016 30 845 24.95 3.4 38.2 79 0.1 32.1
08:35 1016 30 845 24.95 3.5 38.3 78 -0 32
08:40 1016 30 845 24.95 3.7 38.6 74 -0.5 31.1
08:45 1016 30 845 24.95 3.7 38.7 76 -0.2 31.6
08:50 1016 30 845 24.95 3.9 39 74 -0.3 31.5
08:55 1016 30 845 24.95 4.1 39.3 72 -0.5 31.1
09:00 1016 30 845 24.95 4 39.3 73 -0.3 31.5
09:05 1016 30 845 24.95 4 39.2 73 -0.3 31.4
09:10 1016 30 845 24.95 3.9 39.1 74 -0.3 31.4
09:15 1016 30 845 24.95 3.9 39 74 -0.2 31.6
09:20 1016 30 845 24.95 3.9 39.1 74 -0.3 31.5
09:25 1016 30 845 24.95 4.1 39.4 73 -0.2 31.6
09:30 1016 30 845 24.95 4.3 39.8 72 -0.3 31.4
09:35 1016 30 845 24.95 4.4 39.9 72 -0.3 31.4
09:40 1016 30 845 24.95 4.6 40.2 71 -0.3 31.5
09:45 1016 30 845 24.95 4.6 40.3 69 -0.7 30.8
09:50 1016 30 845 24.95 4.6 40.2 69 -0.6 30.9
09:55 1016 30 845 24.95 4.6 40.3 69 -0.6 30.9
10:00 1016 30 845 24.95 4.7 40.4 67 -0.9 30.3
10:05 1016 30 845 24.95 4.7 40.4 65 -1.4 29.5
10:10 1016 30 845 24.95 4.7 40.4 64 -1.4 29.4
10:15 1016 30 845 24.95 4.6 40.3 66 -1.3 29.7
10:20 1016 30 845 24.95 4.7 40.5 65 -1.3 29.7
10:25 1016 30 845 24.95 4.7 40.5 64 -1.5 29.4
10:30 1016 30 845 24.95 4.7 40.5 64 -1.5 29.3
10:35 1016 30 845 24.95 4.7 40.4 65 -1.4 29.4
10:40 1016 30 845 24.95 4.6 40.2 65 -1.4 29.4
10:45 1016 30 845 24.95 4.5 40.2 64 -1.6 29.1
10:50 1016 30 845 24.95 4.6 40.3 65 -1.5 29.4
10:55 1016 30 845 24.95 4.6 40.4 65 -1.4 29.5
11:00 1016 30 845 24.95 4.7 40.5 64 -1.4 29.4
11:05 1016 30 845 24.95 4.8 40.6 63 -1.7 28.9
11:10 1016 30 845 24.95 4.8 40.6 63 -1.5 29.2
11:15 1016 30 845 24.95 5 40.9 62 -1.6 29.1
11:20 1016 30 845 24.95 5.1 41.2 64 -1.2 29.8
11:25 1015 29.97 845 24.95 5.4 41.6 63 -1.1 30.1
11:30 1015 29.97 845 24.95 5.5 41.9 61 -1.5 29.3
11:35 1015 29.97 845 24.95 5.7 42.2 59 -1.6 29.1
11:40 1015 29.97 845 24.95 5.7 42.2 59 -1.7 28.9
11:45 1015 29.97 845 24.95 5.7 42.3 58 -1.9 28.5
11:50 1015 29.97 844 24.92 5.5 42 60 -1.7 29
11:55 1015 29.97 845 24.95 5.6 42.1 59 -1.9 28.7
12:00 1015 29.97 844 24.92 5.5 42 59 -1.9 28.7
12:05 1015 29.97 844 24.92 5.4 41.8 59 -1.9 28.6
12:10 1015 29.97 844 24.92 5.3 41.6 60 -1.7 28.9
12:15 1015 29.97 844 24.92 5.4 41.6 61 -1.6 29.2
12:20 1015 29.97 844 24.92 5.4 41.6 62 -1.4 29.5
12:25 1015 29.97 844 24.92 5.3 41.5 63 -1.2 29.9
12:30 1015 29.97 844 24.92 5.3 41.5 61 -1.6 29.1
12:35 1015 29.97 844 24.92 5.2 41.3 62 -1.4 29.4
12:40 1015 29.97 844 24.92 5.3 41.5 61 -1.6 29
12:45 1015 29.97 844 24.92 5.2 41.4 60 -1.8 28.7
12:50 1015 29.97 844 24.92 5.3 41.5 60 -1.9 28.6
12:55 1015 29.97 844 24.92 5.4 41.7 59 -2 28.5
13:00 1015 29.97 844 24.92 5.6 42.2 59 -1.8 28.8
13:05 1015 29.97 844 24.92 5.9 42.6 57 -2 28.3
13:10 1015 29.97 844 24.92 5.8 42.5 58 -1.9 28.5
13:15 1015 29.97 844 24.92 5.6 42.1 58 -2 28.4
13:20 1015 29.97 844 24.92 5.6 42.2 58 -1.9 28.5
13:25 1015 29.97 844 24.92 5.7 42.3 56 -2.3 27.8
13:30 1015 29.97 844 24.92 5.6 42.1 56 -2.5 27.6
13:35 1015 29.97 844 24.92 5.5 41.9 57 -2.4 27.6
13:40 1015 29.97 844 24.92 5.5 41.9 57 -2.3 27.8
13:45 1015 29.97 844 24.92 5.6 42 58 -2.2 28.1
13:50 1015 29.97 844 24.92 5.7 42.2 57 -2.2 28.1
13:55 1015 29.97 844 24.92 5.6 42.1 57 -2.2 28
14:00 1015 29.97 844 24.92 5.7 42.2 58 -2.1 28.3
14:05 1015 29.97 844 24.92 5.7 42.3 57 -2.2 28
14:10 1015 29.97 844 24.92 5.7 42.2 58 -2 28.4
14:15 1015 29.97 844 24.92 5.7 42.2 59 -1.8 28.7
14:20 1015 29.97 844 24.92 5.7 42.3 58 -1.8 28.7
14:25 1015 29.97 844 24.92 5.7 42.2 58 -2 28.4
14:30 1015 29.97 844 24.92 5.7 42.3 57 -2 28.3
14:35 1015 29.97 844 24.92 5.7 42.3 58 -2 28.5
14:40 1015 29.97 844 24.92 5.7 42.2 59 -1.6 29.1
14:45 1015 29.97 844 24.92 5.6 42.1 61 -1.4 29.5
14:50 1015 29.97 844 24.92 5.6 42 61 -1.4 29.5
14:55 1015 29.97 845 24.95 5.4 41.7 61 -1.5 29.3
15:00 1015 29.97 844 24.92 5.5 41.9 60 -1.5 29.3
15:05 1015 29.97 844 24.92 5.5 41.9 61 -1.5 29.3
15:10 1015 29.97 844 24.92 5.5 41.9 60 -1.7 29
15:15 1015 29.97 845 24.95 5.6 42.2 59 -1.8 28.8
15:20 1015 29.97 845 24.95 5.4 41.8 59 -1.8 28.8
15:25 1015 29.97 845 24.95 5.6 42.1 60 -1.6 29.1
15:30 1015 29.97 845 24.95 5.6 42 59 -1.7 28.9
15:35 1015 29.97 845 24.95 5.4 41.6 60 -1.7 28.9
15:40 1015 29.97 845 24.95 5.5 41.8 59 -1.8 28.8
15:45 1015 29.97 845 24.95 5.5 42 60 -1.5 29.3
15:50 1015 29.97 845 24.95 5.6 42.1 60 -1.5 29.3
15:55 1016 30 845 24.95 5.6 42.1 60 -1.5 29.4
16:00 1016 30 845 24.95 5.7 42.3 60 -1.4 29.6
16:05 1016 30 845 24.95 5.6 42 63 -1 30.3
16:10 1016 30 845 24.95 5.4 41.7 63 -1.1 30
16:15 1016 30 845 24.95 5.3 41.5 63 -1.2 29.8
16:20 1016 30 845 24.95 4.9 40.9 66 -0.9 30.4
16:25 1016 30 845 24.95 4.7 40.4 66 -1.1 30
16:30 1016 30 845 24.95 4.7 40.5 67 -0.9 30.4
16:35 1016 30 845 24.95 4.7 40.5 66 -1 30.3
16:40 1016 30 845 24.95 4.7 40.5 66 -1 30.2
16:45 1016 30 845 24.95 4.7 40.4 68 -0.8 30.6
16:50 1016 30 845 24.95 4.8 40.6 66 -1 30.2
16:55 1016 30 845 24.95 4.7 40.5 67 -0.8 30.5
17:00 1016 30 845 24.95 4.7 40.4 67 -1 30.2
17:05 1016 30 845 24.95 4.7 40.4 66 -1.1 30.1
17:10 1016 30 845 24.95 4.6 40.2 70 -0.5 31.1
17:15 1016 30 845 24.95 4.3 39.7 73 -0.1 31.7
17:20 1016 30 845 24.95 4.1 39.3 74 -0.1 31.8
17:25 1016 30 845 24.95 3.9 39.1 74 -0.2 31.6
17:30 1016 30 845 24.95 3.8 38.9 75 -0.1 31.8
17:35 1016 30 845 24.95 3.8 38.8 76 -0 31.9
17:40 1016 30 845 24.95 3.8 38.8 74 -0.4 31.3
17:45 1016 30 845 24.95 3.9 39.1 74 -0.2 31.6
17:50 1016 30 845 24.95 3.9 39.1 75 -0 32
17:55 1016 30 845 24.95 4 39.1 74 -0.2 31.6
18:00 1016 30 845 24.95 3.8 38.8 77 0.1 32.1
18:05 1016 30 845 24.95 3.8 38.8 78 0.3 32.5
18:10 1016 30 845 24.95 3.8 38.9 79 0.5 32.8
18:15 1016 30 845 24.95 3.9 39.1 77 0.2 32.4
18:20 1016 30 845 24.95 3.9 39 77 0.1 32.2
18:25 1016 30 845 24.95 3.8 38.9 77 0.2 32.4
18:30 1016 30 845 24.95 3.8 38.9 77 0.1 32.2
18:35 1016 30 845 24.95 3.8 38.9 75 -0.2 31.6
18:40 1016 30 845 24.95 3.9 39 73 -0.6 31
18:45 1016 30 845 24.95 3.7 38.7 74 -0.5 31.1
18:50 1016 30 845 24.95 3.6 38.5 73 -0.7 30.7
18:55 1016 30 845 24.95 3.6 38.6 73 -0.7 30.7
19:00 1016 30 845 24.95 3.7 38.6 75 -0.4 31.4
19:05 1016 30 845 24.95 3.6 38.4 75 -0.4 31.3
19:10 1016 30 845 24.95 3.5 38.2 76 -0.4 31.2
19:15 1016 30 845 24.95 3.3 38 77 -0.3 31.4
19:20 1016 30 845 24.95 3.1 37.6 77 -0.5 31.1
19:25 1016 30 845 24.95 3 37.4 79 -0.3 31.5
19:30 1016 30 845 24.95 2.9 37.2 80 -0.3 31.4
19:35 1016 30 845 24.95 2.7 36.8 80 -0.5 31.1
19:40 1016 30 845 24.95 2.5 36.5 81 -0.4 31.2
19:45 1016 30 845 24.95 2.4 36.2 83 -0.3 31.5
19:50 1016 30 845 24.95 2.2 35.9 83 -0.4 31.3
19:55 1016 30 845 24.95 2.1 35.8 85 -0.1 31.8
20:00 1016 30 845 24.95 2.1 35.8 86 -0 32
20:05 1016 30 845 24.95 2.1 35.8 87 0.1 32.2
20:10 1016 30 845 24.95 2.1 35.9 87 0.1 32.2
20:15 1016 30 845 24.95 2.2 35.9 87 0.1 32.2
20:20 1016 30 845 24.95 2.2 35.9 87 0.1 32.3
20:25 1016 30 845 24.95 2.1 35.8 87 0.1 32.2
20:30 1016 30 845 24.95 2.1 35.9 87 0.2 32.3
20:35 1016 30 845 24.95 2.2 36 86 0.2 32.4
20:40 1016 30 845 24.95 2.2 36 87 0.3 32.5
20:45 1016 30 845 24.95 2.3 36.1 87 0.3 32.6
20:50 1016 30 845 24.95 2.3 36.1 87 0.3 32.6
20:55 1016 30 845 24.95 2.4 36.2 86 0.3 32.5
21:00 1016 30 845 24.95 2.4 36.4 85 0.2 32.4
21:05 1016 30 845 24.95 2.5 36.5 86 0.4 32.7
21:10 1016 30 845 24.95 2.6 36.6 85 0.2 32.4
21:15 1016 30 845 24.95 2.6 36.6 84 0.2 32.4
21:20 1016 30 845 24.95 2.7 36.8 84 0.2 32.3
21:25 1016 30 845 24.95 2.7 36.9 83 0.1 32.2
21:30 1016 30 845 24.95 2.8 37.1 81 -0 31.9
21:35 1016 30 845 24.95 2.9 37.2 82 0.1 32.2
21:40 1016 30 845 24.95 2.9 37.2 82 0 32.1
21:45 1016 30 845 24.95 2.9 37.3 81 0 32.1
21:50 1016 30 845 24.95 2.9 37.3 82 0.1 32.2
21:55 1016 30 845 24.95 2.9 37.3 81 -0.1 31.9
22:00 1016 30 845 24.95 3 37.4 80 -0.1 31.8
22:05 1016 30 845 24.95 3 37.3 80 -0.1 31.8
22:10 1016 30 845 24.95 3 37.4 80 -0.1 31.8
22:15 1016 30 845 24.95 3 37.5 79 -0.3 31.5
22:20 1016 30 845 24.95 3.1 37.6 79 -0.3 31.5
22:25 1016 30 845 24.95 3.1 37.6 78 -0.3 31.4
22:30 1016 30 845 24.95 3.1 37.6 79 -0.2 31.7
22:35 1016 30 845 24.95 3.1 37.6 78 -0.3 31.4
22:40 1016 30 845 24.95 3.1 37.6 79 -0.2 31.7
22:45 1016 30 845 24.95 3.1 37.6 80 -0.1 31.9
22:50 1016 30 845 24.95 3.1 37.6 79 -0.2 31.6
22:55 1016 30 845 24.95 3.1 37.6 78 -0.4 31.4
23:00 1016 30 845 24.95 3.1 37.6 78 -0.3 31.5
23:05 1016 30 845 24.95 3.1 37.6 79 -0.2 31.6
23:10 1016 30 845 24.95 3.1 37.6 76 -0.8 30.6
23:15 1016 30 845 24.95 3 37.4 75 -0.9 30.3
23:20 1016 30 845 24.95 2.9 37.2 77 -0.8 30.6
23:25 1016 30 845 24.95 2.9 37.1 77 -0.8 30.6
23:30 1016 30 845 24.95 2.7 36.9 78 -0.7 30.7
23:35 1016 30 845 24.95 2.6 36.8 79 -0.6 30.9
23:40 1016 30 845 24.95 2.6 36.6 80 -0.6 31
23:45 1016 30 845 24.95 2.5 36.5 80 -0.6 30.9
23:50 1016 30 845 24.95 2.5 36.5 80 -0.6 30.8
23:55 1016 30 845 24.95 2.5 36.4 80 -0.6 30.9
24:00 1016 30 845 24.95 2.5 36.4 80 -0.7 30.8